Hovedside
METAR-TAF:

METAR-TAF

Lufthavner :

Sønderborg lufthavn

Sønderborg, Danmark

breddegrad: 54-58N, lengdegrad: 009-47E, høyde over havet: 7 m

Gjeldene værobservasjon

Denne rapporten ble laget for 46 minutter siden, klokken 23:50 UTC
Vind 9 kt fra Sør-sørøst
Temperatur 14°C
Luftfuktighet 77%
Trykk 1005 hPa
Sikt 10 km eller mer

METAR: EKSB 152350Z AUTO 16009KT 9999 FEW083/// BKN180/// 14/10 Q1005

Tid: 02:36 (00:36 UTC)


TAF: fraværende

Værobservasjoner og værvarsel for over 4000 flyplasser (METAR- og TAF-rapporter).

Tilgjengelige stasjoner er representert av de røde og gule prikkene på kartet.

Hold musepekeren over prikken for å se navnet på stasjonen.

Klikk så for å se værobservasjoner og -varsler.

For å forandre kartet kan du klikke på den grønne knappen med svart kryss for å zoome inn, på den grønne knappen med strek for å zoome ut, eller på de grønne pilene for å se tilstøtende kart.


METAR-TAF: